Time;durP1;ratioP1;P1;durP2;ratioP2;P2;SDS_P1;SDS_P2;PMS_P1;PMS_P2;Temp;Humidity;BMP_temperature;BMP_pressure;BME280_temperature;BME280_humidity;BME280_pressure;Samples;Min_cycle;Max_cycle;Signal;HPM_P1;HPM_P2
2022/07/05 00:03:06;;;;;;;5.10;2.30;;;20.30;99.90;;;;;;6861545;28;20557;-77
2022/07/05 00:06:28;;;;;;;4.50;2.10;;;20.30;99.90;;;;;;6860581;28;20467;-78
2022/07/05 00:09:53;;;;;;;4.20;2.03;;;20.10;99.90;;;;;;6859483;28;20481;-75
2022/07/05 00:13:15;;;;;;;4.45;2.15;;;19.90;99.90;;;;;;6861512;28;20494;-77
2022/07/05 00:16:39;;;;;;;4.70;2.00;;;19.90;99.90;;;;;;6861467;28;20450;-76
2022/07/05 00:20:01;;;;;;;3.63;1.85;;;19.90;99.90;;;;;;6857887;28;20447;-77
2022/07/05 00:23:23;;;;;;;4.25;1.90;;;20.00;99.90;;;;;;6834503;28;20445;-77
2022/07/05 00:26:45;;;;;;;5.40;2.10;;;20.10;99.90;;;;;;6835882;29;20873;-79
2022/07/05 00:30:09;;;;;;;4.03;2.10;;;20.00;99.90;;;;;;6835843;29;20504;-79
2022/07/05 00:33:32;;;;;;;4.70;1.90;;;19.80;99.90;;;;;;6852976;28;20493;-79
2022/07/05 00:36:54;;;;;;;5.43;1.90;;;19.80;99.90;;;;;;6860530;28;20466;-79
2022/07/05 00:40:16;;;;;;;3.83;1.80;;;19.80;99.90;;;;;;6860750;28;20443;-78
2022/07/05 00:43:38;;;;;;;4.78;2.08;;;19.90;99.90;;;;;;6855937;28;20481;-78
2022/07/05 00:47:00;;;;;;;4.83;2.10;;;19.90;99.90;;;;;;6858857;28;20471;-78
2022/07/05 00:50:24;;;;;;;4.50;2.10;;;19.90;99.90;;;;;;6858733;28;20484;-78
2022/07/05 00:53:46;;;;;;;4.80;2.20;;;20.00;99.90;;;;;;6858405;28;20467;-80
2022/07/05 00:57:09;;;;;;;4.90;2.20;;;19.90;99.90;;;;;;6859030;28;20491;-80
2022/07/05 01:00:31;;;;;;;5.40;2.10;;;19.90;99.90;;;;;;6858962;28;20435;-79
2022/07/05 01:03:53;;;;;;;4.20;2.00;;;19.90;99.90;;;;;;6858671;28;20527;-77
2022/07/05 01:07:19;;;;;;;5.60;2.10;;;19.90;99.90;;;;;;6859450;28;20447;-76
2022/07/05 01:10:42;;;;;;;4.65;2.20;;;19.90;99.90;;;;;;6859533;28;20448;-78
2022/07/05 01:14:04;;;;;;;3.70;2.10;;;19.80;99.90;;;;;;6859795;28;20439;-78
2022/07/05 01:17:27;;;;;;;4.72;2.10;;;19.70;99.90;;;;;;6858959;28;20488;-79
2022/07/05 01:20:50;;;;;;;5.03;2.00;;;19.70;99.90;;;;;;6858782;28;20472;-78
2022/07/05 01:24:16;;;;;;;4.07;2.10;;;19.70;99.90;;;;;;6859617;28;20468;-77
2022/07/05 01:27:38;;;;;;;5.28;2.08;;;19.70;99.90;;;;;;6859831;28;20472;-78
2022/07/05 01:31:02;;;;;;;4.20;2.10;;;19.80;99.90;;;;;;6854747;28;21000;-77
2022/07/05 01:34:24;;;;;;;3.65;2.00;;;19.70;99.90;;;;;;6859643;28;20443;-78
2022/07/05 01:37:46;;;;;;;4.30;2.00;;;19.60;99.90;;;;;;6858541;28;20473;-79
2022/07/05 01:41:10;;;;;;;4.13;2.08;;;19.50;99.90;;;;;;6857957;28;20490;-79
2022/07/05 01:44:33;;;;;;;5.05;2.30;;;19.50;99.90;;;;;;6856577;28;20468;-80
2022/07/05 01:47:55;;;;;;;4.28;2.10;;;19.50;99.90;;;;;;6886040;28;20442;-78
2022/07/05 01:51:22;;;;;;;4.90;2.17;;;19.50;99.90;;;;;;6858751;28;20938;-76
2022/07/05 01:54:44;;;;;;;3.97;2.10;;;19.40;99.90;;;;;;6859939;28;20450;-77
2022/07/05 01:58:08;;;;;;;4.60;2.00;;;19.40;99.90;;;;;;6856503;28;20471;-78
2022/07/05 02:01:35;;;;;;;3.92;2.10;;;19.40;99.90;;;;;;6859057;28;20599;-78
2022/07/05 02:04:57;;;;;;;5.72;2.22;;;19.30;99.90;;;;;;6859230;28;20429;-77
2022/07/05 02:08:20;;;;;;;6.20;2.30;;;19.10;99.90;;;;;;6857725;28;20563;-78
2022/07/05 02:11:42;;;;;;;7.10;2.30;;;19.00;99.90;;;;;;6859397;28;20444;-78
2022/07/05 02:15:07;;;;;;;3.70;2.10;;;18.90;99.90;;;;;;6857297;28;20443;-78
2022/07/05 02:18:29;;;;;;;5.38;2.38;;;18.90;99.90;;;;;;6858442;28;20435;-78
2022/07/05 02:21:51;;;;;;;5.47;2.30;;;18.90;99.90;;;;;;6856586;28;20434;-79
2022/07/05 02:25:13;;;;;;;4.57;2.25;;;19.10;99.90;;;;;;6862997;28;20436;-78
2022/07/05 02:28:35;;;;;;;4.00;2.07;;;19.10;99.90;;;;;;6861353;28;20466;-79
2022/07/05 02:31:58;;;;;;;5.05;2.40;;;19.10;99.90;;;;;;6860013;28;20498;-79
2022/07/05 02:35:20;;;;;;;4.13;2.20;;;19.10;99.90;;;;;;6861824;28;20480;-79
2022/07/05 02:38:43;;;;;;;5.30;2.20;;;19.10;99.90;;;;;;6884299;28;20474;-80
2022/07/05 02:42:05;;;;;;;4.53;2.20;;;19.10;99.90;;;;;;6863620;28;20443;-77
2022/07/05 02:45:27;;;;;;;4.22;2.33;;;19.10;99.90;;;;;;6863281;28;20435;-79
2022/07/05 02:48:53;;;;;;;4.07;2.10;;;19.10;99.90;;;;;;6861914;28;20937;-79
2022/07/05 02:52:15;;;;;;;3.80;2.05;;;19.10;99.90;;;;;;6862536;28;20444;-78
2022/07/05 02:55:37;;;;;;;4.15;2.22;;;19.10;99.90;;;;;;6863101;28;20458;-79
2022/07/05 02:58:59;;;;;;;4.43;2.20;;;19.10;99.90;;;;;;6871850;28;20440;-78
2022/07/05 03:02:21;;;;;;;4.15;2.20;;;19.00;99.90;;;;;;6862262;28;20952;-78
2022/07/05 03:05:45;;;;;;;4.53;2.00;;;19.00;99.90;;;;;;6862105;28;20945;-79
2022/07/05 03:09:07;;;;;;;4.20;2.00;;;18.90;99.90;;;;;;6861474;28;20454;-79
2022/07/05 03:12:29;;;;;;;4.15;2.03;;;19.10;99.90;;;;;;6861948;28;20480;-79
2022/07/05 03:15:51;;;;;;;4.43;2.42;;;19.10;99.90;;;;;;6860458;28;20440;-79
2022/07/05 03:19:13;;;;;;;5.95;2.40;;;19.00;99.90;;;;;;6861084;28;20471;-79
2022/07/05 03:22:36;;;;;;;5.45;2.75;;;18.80;99.90;;;;;;6861894;28;20451;-77
2022/07/05 03:25:58;;;;;;;6.88;2.70;;;18.60;99.90;;;;;;6862614;28;20442;-79
2022/07/05 03:29:20;;;;;;;5.68;2.17;;;18.50;99.90;;;;;;6860856;28;20941;-77
2022/07/05 03:32:42;;;;;;;6.18;2.65;;;18.60;99.90;;;;;;6861197;28;20455;-80
2022/07/05 03:36:05;;;;;;;5.75;2.70;;;18.70;99.90;;;;;;6861405;28;20435;-79
2022/07/05 03:39:29;;;;;;;5.55;2.55;;;18.70;99.90;;;;;;6860322;28;20482;-78
2022/07/05 03:42:51;;;;;;;4.95;2.42;;;18.70;99.90;;;;;;6860377;28;20474;-78
2022/07/05 03:46:13;;;;;;;6.30;2.47;;;18.70;99.90;;;;;;6888803;28;20466;-80
2022/07/05 03:49:35;;;;;;;5.10;2.33;;;18.70;99.90;;;;;;6862406;28;20991;-79
2022/07/05 03:52:57;;;;;;;5.55;2.60;;;18.70;99.90;;;;;;6861804;28;20451;-80
2022/07/05 03:56:22;;;;;;;6.28;2.40;;;18.70;99.90;;;;;;6860179;28;20481;-78
2022/07/05 03:59:45;;;;;;;4.72;2.20;;;18.80;99.90;;;;;;6860823;28;20433;-79
2022/07/05 04:03:07;;;;;;;5.40;2.50;;;18.70;99.90;;;;;;6860639;28;20493;-78
2022/07/05 04:06:29;;;;;;;4.60;2.67;;;18.70;99.90;;;;;;6861867;28;20479;-81
2022/07/05 04:09:51;;;;;;;4.65;2.40;;;18.60;99.90;;;;;;6860671;28;20472;-78
2022/07/05 04:13:14;;;;;;;5.40;2.67;;;18.40;99.90;;;;;;6860543;28;20440;-77
2022/07/05 04:16:36;;;;;;;6.28;2.70;;;18.40;99.90;;;;;;6888232;28;20831;-77
2022/07/05 04:19:58;;;;;;;4.97;2.53;;;18.40;99.90;;;;;;6888165;28;20462;-79
2022/07/05 04:23:20;;;;;;;4.55;2.40;;;18.40;99.90;;;;;;6887767;28;20434;-79
2022/07/05 04:26:43;;;;;;;5.63;2.60;;;18.50;99.90;;;;;;6887848;28;20489;-78
2022/07/05 04:30:08;;;;;;;4.60;2.63;;;18.60;99.90;;;;;;6859581;28;20432;-77
2022/07/05 04:33:30;;;;;;;4.17;2.20;;;18.60;99.90;;;;;;6855893;28;20447;-78
2022/07/05 04:36:52;;;;;;;5.30;2.47;;;18.70;99.90;;;;;;6860858;28;20480;-78
2022/07/05 04:40:15;;;;;;;4.67;2.30;;;18.80;99.90;;;;;;6860977;28;20798;-79
2022/07/05 04:43:37;;;;;;;5.00;2.50;;;18.80;99.90;;;;;;6860580;28;20937;-77
2022/07/05 04:47:00;;;;;;;5.65;2.40;;;18.80;99.90;;;;;;6879719;28;20435;-77
2022/07/05 04:50:23;;;;;;;5.20;2.50;;;18.80;99.90;;;;;;6887013;28;20473;-77
2022/07/05 04:53:45;;;;;;;4.95;2.63;;;18.90;99.90;;;;;;6887102;28;20430;-78
2022/07/05 04:57:08;;;;;;;4.57;2.67;;;18.80;99.90;;;;;;6884258;28;20474;-77
2022/07/05 05:00:31;;;;;;;5.17;2.40;;;18.80;99.90;;;;;;6861838;28;20440;-80
2022/07/05 05:03:55;;;;;;;5.50;2.83;;;18.80;99.90;;;;;;6848046;28;20443;-78
2022/07/05 05:07:17;;;;;;;5.45;2.80;;;18.80;99.90;;;;;;6859933;28;20471;-79
2022/07/05 05:10:39;;;;;;;4.90;2.53;;;18.80;99.90;;;;;;6886564;28;20923;-79
2022/07/05 05:14:01;;;;;;;5.30;3.00;;;18.80;99.90;;;;;;6886731;28;20788;-78
2022/07/05 05:17:23;;;;;;;5.57;2.97;;;18.80;99.90;;;;;;6878556;28;20471;-78
2022/07/05 05:20:46;;;;;;;6.05;3.10;;;18.70;99.90;;;;;;6833201;29;20860;-78
2022/07/05 05:24:08;;;;;;;6.75;3.17;;;18.60;99.90;;;;;;6833282;29;20476;-78
2022/07/05 05:27:30;;;;;;;4.50;2.80;;;18.50;99.90;;;;;;6836667;28;20440;-80
2022/07/05 05:30:52;;;;;;;5.05;2.65;;;18.50;99.90;;;;;;6857865;28;20447;-77
2022/07/05 05:34:15;;;;;;;5.18;2.78;;;18.60;99.90;;;;;;6859799;28;20546;-77
2022/07/05 05:37:56;;;;;;;5.50;2.60;;;18.60;99.90;;;;;;6859374;28;20436;-80
2022/07/05 05:41:19;;;;;;;6.57;2.70;;;18.70;99.90;;;;;;6858353;28;20944;-79
2022/07/05 05:44:41;;;;;;;5.97;2.70;;;18.70;99.90;;;;;;6873666;28;20474;-79
2022/07/05 05:48:03;;;;;;;5.18;2.90;;;18.70;99.90;;;;;;6858232;28;20934;-80
2022/07/05 05:51:25;;;;;;;7.22;2.83;;;18.80;99.90;;;;;;6886027;28;20478;-79
2022/07/05 05:54:48;;;;;;;6.85;2.50;;;18.80;99.90;;;;;;6861665;28;20483;-77
2022/07/05 05:58:14;;;;;;;5.13;2.70;;;18.90;99.90;;;;;;6862685;28;20442;-79
2022/07/05 06:01:36;;;;;;;5.30;2.50;;;18.90;99.90;;;;;;6864780;28;20435;-79
2022/07/05 06:04:58;;;;;;;5.10;2.40;;;19.10;99.90;;;;;;6864314;28;20435;-77
2022/07/05 06:08:21;;;;;;;5.45;2.42;;;19.00;99.90;;;;;;6862486;28;20443;-81
2022/07/05 06:11:44;;;;;;;5.47;2.40;;;19.10;99.90;;;;;;6864507;28;20541;-80
2022/07/05 06:15:08;;;;;;;5.00;2.20;;;19.20;99.90;;;;;;6863182;28;20443;-78
2022/07/05 06:18:30;;;;;;;4.25;2.50;;;19.30;99.90;;;;;;6864432;28;20535;-78
2022/07/05 06:21:52;;;;;;;5.35;2.50;;;19.30;99.90;;;;;;6886026;28;20931;-77
2022/07/05 06:25:14;;;;;;;4.57;2.30;;;19.30;99.90;;;;;;6864056;28;20484;-80
2022/07/05 06:28:38;;;;;;;7.05;2.40;;;19.40;99.90;;;;;;6863854;28;20468;-79
2022/07/05 06:32:00;;;;;;;4.80;2.35;;;19.50;99.90;;;;;;6890542;28;20488;-79
2022/07/05 06:35:23;;;;;;;5.57;2.28;;;19.50;99.90;;;;;;6890775;28;20961;-78
2022/07/05 06:38:45;;;;;;;5.50;2.10;;;19.60;99.90;;;;;;6868271;28;20933;-78
2022/07/05 06:42:08;;;;;;;4.38;2.17;;;19.60;99.90;;;;;;6872184;28;20471;-78
2022/07/05 06:45:31;;;;;;;4.53;2.20;;;19.70;99.80;;;;;;6890001;28;20434;-79
2022/07/05 06:48:53;;;;;;;5.13;2.25;;;19.70;99.30;;;;;;6890576;28;20434;-82
2022/07/05 06:52:16;;;;;;;4.70;2.08;;;19.70;99.50;;;;;;6890339;28;20450;-83
2022/07/05 06:55:43;;;;;;;4.13;2.00;;;19.70;99.30;;;;;;6877627;28;20950;-81
2022/07/05 06:59:06;;;;;;;5.95;2.20;;;19.70;99.20;;;;;;6889980;28;20434;-80
2022/07/05 07:02:29;;;;;;;5.40;2.10;;;19.80;98.50;;;;;;6872473;28;20447;-90
2022/07/05 07:05:51;;;;;;;5.15;2.03;;;19.90;99.30;;;;;;6863644;28;20912;-79
2022/07/05 07:09:20;;;;;;;4.68;1.83;;;20.00;98.10;;;;;;6861573;28;20479;-86
2022/07/05 07:12:42;;;;;;;4.20;1.90;;;20.10;97.90;;;;;;6861073;28;20810;-78
2022/07/05 07:16:05;;;;;;;4.07;1.77;;;20.20;97.10;;;;;;6883131;28;20447;-77
2022/07/05 07:19:28;;;;;;;5.30;2.00;;;20.10;95.70;;;;;;6862611;28;20938;-79
2022/07/05 07:22:51;;;;;;;4.32;1.77;;;20.20;96.00;;;;;;6861302;28;20477;-80
2022/07/05 07:26:13;;;;;;;4.43;1.77;;;20.20;95.40;;;;;;6883670;28;20902;-78
2022/07/05 07:29:38;;;;;;;4.97;1.98;;;20.20;95.30;;;;;;6860757;28;21061;-80
2022/07/05 07:33:00;;;;;;;4.75;2.00;;;20.30;95.80;;;;;;6858836;28;20847;-78
2022/07/05 07:36:24;;;;;;;5.95;2.10;;;20.30;96.00;;;;;;6858701;28;20440;-83
2022/07/05 07:39:46;;;;;;;5.18;1.80;;;20.30;95.60;;;;;;6883988;28;20442;-80
2022/07/05 07:43:08;;;;;;;4.40;1.77;;;20.40;93.80;;;;;;6855128;28;20516;-79
2022/07/05 07:46:30;;;;;;;5.07;1.88;;;20.60;93.50;;;;;;6861072;28;20566;-79
2022/07/05 07:49:52;;;;;;;5.65;2.17;;;20.80;94.70;;;;;;6831957;29;20465;-80
2022/07/05 07:53:15;;;;;;;4.27;1.97;;;20.80;94.10;;;;;;6831724;29;20504;-78
2022/07/05 07:56:37;;;;;;;5.10;1.80;;;20.90;94.40;;;;;;6845736;28;20787;-79
2022/07/05 07:59:59;;;;;;;5.70;1.80;;;20.90;94.10;;;;;;6858409;28;20475;-77
2022/07/05 08:03:22;;;;;;;4.35;1.80;;;21.00;93.80;;;;;;6885684;28;20489;-75
2022/07/05 08:06:45;;;;;;;5.20;1.80;;;21.10;92.90;;;;;;6885503;28;20536;-76
2022/07/05 08:10:10;;;;;;;3.75;1.55;;;21.10;93.70;;;;;;6875172;28;20447;-80
2022/07/05 08:13:32;;;;;;;5.30;1.98;;;21.10;93.80;;;;;;6886156;28;20493;-81
2022/07/05 08:16:54;;;;;;;4.87;1.53;;;21.10;92.30;;;;;;6877584;28;20911;-78
2022/07/05 08:23:56;;;;;;;4.85;1.60;;;21.30;92.00;;;;;;6858246;28;20444;-80
2022/07/05 08:27:20;;;;;;;3.60;1.65;;;21.30;92.20;;;;;;6858673;28;20492;-79
2022/07/05 08:30:42;;;;;;;4.38;1.70;;;21.40;92.00;;;;;;6858367;28;20436;-78
2022/07/05 08:34:04;;;;;;;5.13;1.67;;;21.50;92.30;;;;;;6857686;28;20463;-79
2022/07/05 08:37:27;;;;;;;4.82;1.70;;;21.50;92.10;;;;;;6857316;28;20443;-78
2022/07/05 08:40:52;;;;;;;4.03;1.65;;;21.50;91.90;;;;;;6856620;28;20463;-79
2022/07/05 08:44:18;;;;;;;4.50;1.60;;;21.60;92.10;;;;;;6858515;28;20798;-78
2022/07/05 08:47:43;;;;;;;5.00;1.80;;;21.70;92.30;;;;;;6856755;28;20502;-80
2022/07/05 08:51:05;;;;;;;5.40;1.70;;;21.70;91.50;;;;;;6882190;28;20437;-78
2022/07/05 08:54:27;;;;;;;4.10;1.75;;;21.80;91.50;;;;;;6884599;28;20473;-81
2022/07/05 08:57:49;;;;;;;4.87;1.70;;;21.80;91.40;;;;;;6884710;28;20466;-79
2022/07/05 09:01:14;;;;;;;5.10;1.85;;;22.00;91.30;;;;;;6882748;28;20438;-78
2022/07/05 09:04:43;;;;;;;4.55;1.80;;;22.00;91.20;;;;;;6857433;28;20531;-77
2022/07/05 09:08:06;;;;;;;5.32;1.80;;;22.00;91.10;;;;;;6883929;28;20441;-77
2022/07/05 09:11:36;;;;;;;4.55;1.75;;;22.10;91.10;;;;;;6859944;28;20485;-77
2022/07/05 09:14:58;;;;;;;4.93;1.73;;;22.20;90.60;;;;;;6857525;28;20436;-78
2022/07/05 09:18:44;;;;;;;4.00;1.60;;;22.20;90.80;;;;;;6884261;28;20431;-77
2022/07/05 09:22:08;;;;;;;5.80;2.10;;;22.30;90.70;;;;;;6883860;28;20474;-78
2022/07/05 09:25:32;;;;;;;5.60;1.70;;;22.40;90.50;;;;;;6872313;28;20436;-78
2022/07/05 09:28:58;;;;;;;5.60;1.73;;;22.40;90.30;;;;;;6857266;28;20510;-76
2022/07/05 09:32:25;;;;;;;4.10;1.50;;;22.50;90.60;;;;;;6856363;28;20447;-77
2022/07/05 09:35:57;;;;;;;4.82;1.70;;;22.60;90.70;;;;;;6857239;28;20483;-77
2022/07/05 09:39:20;;;;;;;4.60;1.60;;;22.60;90.50;;;;;;6855265;28;20663;-77
2022/07/05 09:42:42;;;;;;;5.07;1.52;;;22.70;87.20;;;;;;6856947;28;20476;-78
2022/07/05 09:46:05;;;;;;;6.45;1.58;;;22.70;85.70;;;;;;6856699;28;20458;-78
2022/07/05 09:49:27;;;;;;;3.55;1.40;;;22.70;85.10;;;;;;6856511;28;20519;-78
2022/07/05 09:52:57;;;;;;;4.72;1.40;;;22.80;85.90;;;;;;6856529;28;20448;-79
2022/07/05 09:56:19;;;;;;;6.20;1.77;;;22.90;84.70;;;;;;6860395;28;21058;-78
2022/07/05 09:59:41;;;;;;;4.20;1.60;;;23.00;84.80;;;;;;6854425;28;20444;-79
2022/07/05 10:03:03;;;;;;;4.60;1.40;;;23.20;84.70;;;;;;6857019;28;20440;-78
2022/07/05 10:06:26;;;;;;;3.28;1.10;;;23.20;79.70;;;;;;6857159;28;21103;-78
2022/07/05 10:09:50;;;;;;;4.00;1.30;;;23.20;79.80;;;;;;6855606;28;20486;-80
2022/07/05 10:13:15;;;;;;;5.53;1.35;;;23.40;80.60;;;;;;6884690;28;20481;-82
2022/07/05 10:16:37;;;;;;;4.60;1.20;;;23.40;80.80;;;;;;6883734;28;20457;-82
2022/07/05 10:19:59;;;;;;;2.65;1.08;;;23.50;79.60;;;;;;6884261;28;20442;-83
2022/07/05 10:23:23;;;;;;;3.75;1.20;;;23.60;75.70;;;;;;6878849;28;20472;-83
2022/07/05 10:26:48;;;;;;;3.70;1.20;;;23.70;75.00;;;;;;6858407;28;20922;-82
2022/07/05 10:30:12;;;;;;;4.30;1.10;;;23.80;76.20;;;;;;6857600;28;20479;-81
2022/07/05 10:33:34;;;;;;;3.28;1.25;;;23.90;76.80;;;;;;6855401;28;20451;-83
2022/07/05 10:36:56;;;;;;;3.22;1.10;;;24.00;75.30;;;;;;6856174;28;20502;-82
2022/07/05 10:40:19;;;;;;;4.78;1.20;;;24.10;75.50;;;;;;6854291;28;20471;-82
2022/07/05 10:43:43;;;;;;;4.07;1.30;;;24.30;72.00;;;;;;6857085;28;20908;-81
2022/07/05 10:47:11;;;;;;;3.80;1.30;;;24.20;72.00;;;;;;6834494;28;20441;-81
2022/07/05 10:50:45;;;;;;;4.30;1.40;;;24.20;71.90;;;;;;6849303;28;20475;-81
2022/07/05 10:54:07;;;;;;;3.65;1.20;;;24.10;72.90;;;;;;6860785;28;20512;-77
2022/07/05 10:57:30;;;;;;;4.40;1.37;;;24.10;75.20;;;;;;6860598;28;21092;-77
2022/07/05 11:01:34;;;;;;;3.83;1.30;;;24.10;71.60;;;;;;6858790;28;20531;-80
2022/07/05 11:04:57;;;;;;;4.00;1.10;;;24.10;72.80;;;;;;6860207;28;20482;-78
2022/07/05 11:08:19;;;;;;;3.30;1.10;;;24.20;71.10;;;;;;6860517;28;20861;-78
2022/07/05 11:11:43;;;;;;;4.05;1.10;;;24.20;71.80;;;;;;6859585;28;20481;-78
2022/07/05 11:15:08;;;;;;;3.90;1.20;;;24.30;69.50;;;;;;6859869;28;20533;-79
2022/07/05 11:18:32;;;;;;;2.97;1.00;;;24.40;69.20;;;;;;6859760;28;20941;-78
2022/07/05 11:22:02;;;;;;;5.57;1.30;;;24.50;69.70;;;;;;6858689;28;20440;-77
2022/07/05 11:25:24;;;;;;;4.13;1.15;;;24.50;69.60;;;;;;6859509;28;20487;-79
2022/07/05 11:28:48;;;;;;;3.63;1.25;;;24.60;67.60;;;;;;6859439;28;20443;-80
2022/07/05 11:32:13;;;;;;;5.70;1.20;;;24.60;68.00;;;;;;6860399;28;20436;-82
2022/07/05 11:35:40;;;;;;;3.30;1.30;;;24.70;67.10;;;;;;6858763;28;20548;-78
2022/07/05 11:39:15;;;;;;;2.67;1.08;;;24.80;65.20;;;;;;6857979;28;20440;-80
2022/07/05 11:42:39;;;;;;;3.90;1.10;;;24.70;64.20;;;;;;6833554;29;20474;-78
2022/07/05 11:46:02;;;;;;;3.72;1.10;;;24.80;64.10;;;;;;6832362;28;20441;-78
2022/07/05 11:49:25;;;;;;;3.97;1.10;;;24.80;65.70;;;;;;6832793;28;20448;-80
2022/07/05 11:52:51;;;;;;;4.75;1.00;;;25.00;63.60;;;;;;6832533;28;20496;-79
2022/07/05 11:56:13;;;;;;;3.88;1.00;;;24.90;61.00;;;;;;6853216;28;20435;-77
2022/07/05 11:59:35;;;;;;;2.80;0.82;;;24.90;61.70;;;;;;6857860;28;20480;-78
2022/07/05 12:02:58;;;;;;;4.07;1.00;;;24.90;61.80;;;;;;6858454;28;20746;-80
2022/07/05 12:06:20;;;;;;;2.33;0.90;;;25.00;62.00;;;;;;6859097;28;20494;-78
2022/07/05 12:13:23;;;;;;;3.55;1.10;;;25.00;59.80;;;;;;6858815;28;20440;-80
2022/07/05 12:16:45;;;;;;;3.10;1.00;;;25.20;60.30;;;;;;6857735;28;20478;-78
2022/07/05 12:20:11;;;;;;;3.13;0.95;;;25.30;60.40;;;;;;6858363;28;20870;-79
2022/07/05 12:23:33;;;;;;;3.17;1.10;;;25.40;60.60;;;;;;6856959;28;20447;-79
2022/07/05 12:26:56;;;;;;;3.03;1.00;;;25.50;58.40;;;;;;6858129;28;20440;-77
2022/07/05 12:30:19;;;;;;;3.63;0.90;;;25.70;58.00;;;;;;6857944;28;20436;-79
2022/07/05 12:33:41;;;;;;;2.38;0.90;;;25.70;58.30;;;;;;6857770;28;20972;-79
2022/07/05 12:37:05;;;;;;;2.97;1.00;;;25.70;56.00;;;;;;6884021;28;20441;-78
2022/07/05 12:40:27;;;;;;;3.90;1.20;;;25.70;56.30;;;;;;6882332;28;20473;-78
2022/07/05 12:43:52;;;;;;;4.30;1.10;;;25.80;56.80;;;;;;6878947;28;20451;-79
2022/07/05 12:47:14;;;;;;;3.67;1.10;;;25.90;58.90;;;;;;6856181;28;20484;-77
2022/07/05 12:50:48;;;;;;;5.35;1.55;;;26.10;57.30;;;;;;6884308;28;20482;-79
2022/07/05 12:58:04;;;;;;;5.45;1.50;;;26.40;57.20;;;;;;6879176;28;20442;-78
2022/07/05 13:01:31;;;;;;;3.90;1.13;;;26.60;56.10;;;;;;6884273;28;20434;-78
2022/07/05 13:04:54;;;;;;;3.97;0.90;;;26.80;56.20;;;;;;6884309;28;20441;-76
2022/07/05 13:08:28;;;;;;;3.15;0.90;;;26.80;54.50;;;;;;6883638;28;20476;-79
2022/07/05 13:11:50;;;;;;;2.92;0.88;;;26.60;52.80;;;;;;6879597;28;20916;-76
2022/07/05 13:15:12;;;;;;;4.15;1.20;;;26.80;54.50;;;;;;6882370;28;20506;-77
2022/07/05 13:18:35;;;;;;;2.93;0.87;;;26.90;55.20;;;;;;6882161;28;20434;-78
2022/07/05 13:21:58;;;;;;;5.78;0.90;;;27.10;55.50;;;;;;6878798;28;20479;-80
2022/07/05 13:25:20;;;;;;;3.42;1.00;;;27.30;56.60;;;;;;6830740;29;20940;-80
2022/07/05 13:28:42;;;;;;;4.53;1.00;;;27.20;55.90;;;;;;6829977;29;21356;-79
2022/07/05 13:32:05;;;;;;;4.88;1.00;;;27.00;53.00;;;;;;6830231;29;20536;-77
2022/07/05 13:35:28;;;;;;;2.80;0.90;;;27.00;55.40;;;;;;6830248;29;20488;-79
2022/07/05 13:38:50;;;;;;;3.20;1.00;;;27.10;55.90;;;;;;6865701;28;20929;-78
2022/07/05 13:42:12;;;;;;;3.72;1.10;;;27.10;54.80;;;;;;6883234;28;20493;-79
2022/07/05 13:45:34;;;;;;;3.53;1.00;;;27.10;54.00;;;;;;6881428;28;20446;-78
2022/07/05 13:48:56;;;;;;;3.25;1.00;;;27.00;53.50;;;;;;6883282;28;20563;-78
2022/07/05 13:52:20;;;;;;;3.17;1.00;;;26.90;54.40;;;;;;6877852;28;20502;-76
2022/07/05 13:55:42;;;;;;;3.97;0.90;;;27.00;55.00;;;;;;6883280;28;20441;-77
2022/07/05 13:59:04;;;;;;;3.40;1.00;;;27.10;54.00;;;;;;6882959;28;20479;-79
2022/07/05 14:02:26;;;;;;;4.30;0.90;;;27.20;54.70;;;;;;6882620;28;20473;-78
2022/07/05 14:05:49;;;;;;;3.80;1.07;;;27.40;54.50;;;;;;6876055;28;20474;-77
2022/07/05 14:09:12;;;;;;;2.78;0.82;;;27.60;55.70;;;;;;6856557;28;20449;-78
2022/07/05 14:12:34;;;;;;;3.30;0.90;;;27.80;52.90;;;;;;6863007;28;20535;-79
2022/07/05 14:15:56;;;;;;;4.05;1.00;;;27.70;54.30;;;;;;6855749;28;21251;-78
2022/07/05 14:19:18;;;;;;;3.70;1.02;;;27.60;51.80;;;;;;6862885;28;20447;-77
2022/07/05 14:22:40;;;;;;;3.53;1.00;;;27.70;53.00;;;;;;6859631;28;20439;-78
2022/07/05 14:26:04;;;;;;;4.90;0.98;;;27.90;53.30;;;;;;6860446;28;20466;-77
2022/07/05 14:29:26;;;;;;;3.05;1.00;;;27.80;52.90;;;;;;6860704;28;20436;-77
2022/07/05 14:32:48;;;;;;;3.40;0.95;;;28.00;52.50;;;;;;6863623;28;20931;-79
2022/07/05 14:36:11;;;;;;;2.88;1.00;;;28.00;53.70;;;;;;6887480;28;20510;-79
2022/07/05 14:39:33;;;;;;;4.50;1.20;;;28.00;53.30;;;;;;6859658;28;20572;-75
2022/07/05 14:42:58;;;;;;;3.55;1.05;;;28.00;55.00;;;;;;6858975;28;20860;-77
2022/07/05 14:46:21;;;;;;;2.95;0.90;;;28.40;55.10;;;;;;6868942;28;20920;-76
2022/07/05 14:49:43;;;;;;;3.80;0.90;;;28.20;52.00;;;;;;6887985;28;20431;-77
2022/07/05 14:53:08;;;;;;;4.53;1.15;;;28.10;54.40;;;;;;6866129;28;20490;-78
2022/07/05 14:56:30;;;;;;;3.27;1.00;;;28.30;54.30;;;;;;6866718;28;20525;-77
2022/07/05 14:59:53;;;;;;;4.10;1.00;;;28.50;53.10;;;;;;6854541;28;20436;-77
2022/07/05 15:03:15;;;;;;;3.25;0.90;;;28.70;52.90;;;;;;6861727;28;20444;-79
2022/07/05 15:06:39;;;;;;;2.80;0.90;;;28.40;52.40;;;;;;6862920;28;20474;-78
2022/07/05 15:10:01;;;;;;;3.00;0.98;;;28.00;52.50;;;;;;6866162;28;20984;-77
2022/07/05 15:13:25;;;;;;;3.55;1.02;;;28.20;52.80;;;;;;6860065;28;20554;-78
2022/07/05 15:16:48;;;;;;;3.90;1.20;;;28.40;52.70;;;;;;6867699;28;20447;-80
2022/07/05 15:20:11;;;;;;;3.28;1.20;;;28.40;51.10;;;;;;6886352;28;20445;-77
2022/07/05 15:23:33;;;;;;;3.10;1.00;;;28.60;53.50;;;;;;6872375;28;20440;-78
2022/07/05 15:26:55;;;;;;;3.33;1.00;;;28.70;51.30;;;;;;6874904;28;20942;-78
2022/07/05 15:30:22;;;;;;;3.17;1.00;;;28.80;51.00;;;;;;6875678;28;20472;-77
2022/07/05 15:33:45;;;;;;;4.25;1.10;;;29.00;51.50;;;;;;6860668;28;20455;-79
2022/07/05 15:37:07;;;;;;;3.97;1.00;;;28.80;51.10;;;;;;6855340;28;21112;-78
2022/07/05 15:40:29;;;;;;;5.13;1.15;;;28.70;51.00;;;;;;6856258;28;20484;-79
2022/07/05 15:43:51;;;;;;;7.80;1.10;;;28.60;50.70;;;;;;6876451;28;20509;-79
2022/07/05 15:47:14;;;;;;;3.95;1.17;;;28.40;52.30;;;;;;6877313;28;20510;-78
2022/07/05 15:50:37;;;;;;;4.40;1.15;;;28.50;51.20;;;;;;6870077;28;20967;-78
2022/07/05 15:53:59;;;;;;;3.73;1.10;;;28.40;52.50;;;;;;6857255;28;21215;-76
2022/07/05 15:57:22;;;;;;;4.00;1.13;;;28.50;51.90;;;;;;6874147;28;20471;-79
2022/07/05 16:00:45;;;;;;;3.47;1.15;;;28.70;52.80;;;;;;6856548;28;20447;-78
2022/07/05 16:04:07;;;;;;;3.80;1.10;;;29.30;51.80;;;;;;6857271;28;20489;-80
2022/07/05 16:07:31;;;;;;;4.13;1.20;;;29.80;50.20;;;;;;6857739;28;20478;-78
2022/07/05 16:10:53;;;;;;;3.80;1.15;;;30.00;49.50;;;;;;6855622;28;20499;-78
2022/07/05 16:14:15;;;;;;;5.43;1.02;;;29.70;49.40;;;;;;6854752;28;20499;-77
2022/07/05 16:17:37;;;;;;;3.45;1.17;;;29.60;48.80;;;;;;6857799;28;20442;-78
2022/07/05 16:21:00;;;;;;;3.97;1.00;;;29.30;48.30;;;;;;6856486;28;20475;-79
2022/07/05 16:24:24;;;;;;;4.57;1.00;;;29.40;49.50;;;;;;6866651;28;21315;-77
2022/07/05 16:27:46;;;;;;;8.35;4.35;;;29.60;50.70;;;;;;6884567;28;20481;-74
2022/07/05 16:31:10;;;;;;;6.30;2.50;;;29.70;49.70;;;;;;6858760;28;20443;-77
2022/07/05 16:34:32;;;;;;;5.13;1.97;;;29.80;49.30;;;;;;6877191;28;20566;-77
2022/07/05 16:37:54;;;;;;;4.03;1.00;;;29.70;47.80;;;;;;6875940;28;20573;-79
2022/07/05 16:41:20;;;;;;;4.22;1.13;;;29.60;49.80;;;;;;6871887;28;20467;-75
2022/07/05 16:44:42;;;;;;;2.60;0.90;;;29.80;48.50;;;;;;6857283;28;20870;-78
2022/07/05 16:48:07;;;;;;;4.32;1.17;;;29.90;49.20;;;;;;6853227;28;20489;-76
2022/07/05 16:51:30;;;;;;;4.50;1.00;;;30.10;48.60;;;;;;6848880;28;20535;-79
2022/07/05 16:54:52;;;;;;;3.60;1.00;;;29.90;47.90;;;;;;6845111;28;20447;-79
2022/07/05 16:58:16;;;;;;;3.93;1.20;;;29.80;48.20;;;;;;6857480;28;20606;-75
2022/07/05 17:01:38;;;;;;;2.67;0.93;;;29.90;48.60;;;;;;6847381;28;20464;-78
2022/07/05 17:05:00;;;;;;;2.92;1.00;;;30.00;48.90;;;;;;6831441;28;20453;-78
2022/07/05 17:08:25;;;;;;;2.95;1.10;;;30.20;47.50;;;;;;6829667;28;20908;-79
2022/07/05 17:11:47;;;;;;;3.45;1.02;;;30.30;47.80;;;;;;6833165;28;20456;-77
2022/07/05 17:15:12;;;;;;;3.65;1.00;;;30.30;48.90;;;;;;6832537;28;20920;-78
2022/07/05 17:18:36;;;;;;;3.23;1.00;;;30.30;47.90;;;;;;6806597;28;20500;-77
2022/07/05 17:21:58;;;;;;;3.75;1.08;;;30.20;46.80;;;;;;6817653;28;20440;-80
2022/07/05 17:25:21;;;;;;;2.95;1.15;;;30.20;47.40;;;;;;6819222;28;20490;-78
2022/07/05 17:28:44;;;;;;;5.93;1.20;;;30.20;47.20;;;;;;6825532;28;20495;-79
2022/07/05 17:32:09;;;;;;;12.95;1.42;;;30.20;46.50;;;;;;6833461;28;20480;-80
2022/07/05 17:35:31;;;;;;;3.45;1.02;;;30.40;47.70;;;;;;6855269;28;21012;-77
2022/07/05 17:38:53;;;;;;;4.00;1.05;;;30.50;48.60;;;;;;6842453;28;20490;-80
2022/07/05 17:42:15;;;;;;;2.92;1.10;;;30.50;47.00;;;;;;6848666;28;20479;-80
2022/07/05 17:45:37;;;;;;;3.22;1.33;;;30.40;46.50;;;;;;6833326;28;20488;-78
2022/07/05 17:49:00;;;;;;;6.80;2.30;;;30.50;46.40;;;;;;6828601;28;20475;-79
2022/07/05 17:52:23;;;;;;;6.30;3.83;;;30.50;45.60;;;;;;6828893;28;20516;-77